Terminal Aerodrome Forecast
Issued by NWS Louisville, KY

Home | Current Version | Previous Version | Text Only | Print | Product List | Glossary On
Versions: 1 2 3 4 5 6 7 8 9 10 11 12 13 14 15 16 17 18 19
000
FTUS43 KLMK 142338
TAFBWG
TAF
KBWG 142338Z 1500/1524 VRB03KT P6SM FEW250
     FM151100 17006KT P6SM BKN100
     FM151400 20010G20KT P6SM BKN080
     FM151800 21010G18KT P6SM VCSH SCT030 BKN040
     FM152100 21007KT 6SM -SHRA BR BKN015=

USA.gov is the U.S. government's official web portal to all federal, state and local government web resources and services.